Startpagina
METAR-TAF:

METAR-TAF

Vliegvelden :

Chengdu, China

Internationale luchthaven Chengdu Shuangliu

breedte: 30-40N, lengte: 104-01E, hoogte: 508 m

Actueel weer

Dit bericht is 1 uur en het 10 minuten geleden gemaakt, om 06:00 UTC
Wind 8 kt uit het zuidwesten, variërend tussen het zuiden en het westen
Temperatuur 30°C
Vochtigheid 52%
Druk 1009 hPa
Zicht: 7000 m

METAR: ZUUU 300600Z 22004MPS 180V260 7000 NSC 30/19 Q1009 NOSIG

Tijdstip: 15:10 (07:10 UTC)

Verwachting

Dit bericht is 4 uur en het 58 minuten geleden gemaakt, om 02:12 UTC
Verwachting geldig van 30 om 06 UTC tot 31 om 06 UTC
Wind 6 kt uit het zuidzuidwesten
Zicht: 5000 m
Verspreide wolken op 5000 ft
nevel

TAF: ZUUU 300212Z 3006/3106 20003MPS 5000 BR SCT050 TX30/3007Z TN20/3022Z

Waarnemingen en weersverwachtingen van meer dan 4000 vliegvelden (METAR en TAF).

De beschikbare stations zijn de gele en rode punten op de kaart.

Ga met uw muis naar het station om de naam te zien.

Klik dan om waarnemingen en weersverwachtingen te zien.

kaart wijzigen: klik op de groene knoppen met een zwart kruis om in te zoomen, op de groene knop met een streepje om uit te zoomen of op de groene pijlen voor aangrenzende kaarten.


METAR-TAF: